Loading...

Airport Hamburg Airport(EDDH)



ICAO EDDH
Land Germany
Position 53° 37.824 N 9° 59.294 E
Höhe 53 ft über NN

Pisten Länge(ft) Länge(m) HDG
05 10663ft 34974m 50
23 10663ft 34974m 230
15 12028ft 39451m 152
33 12028ft 39451m 332

METAR

2022/05/21 05:50 EDDH 210550Z AUTO 23013G23KT 9999 -RADZ OVC011 12/10 Q1014 TEMPO 4000 SHRA BKN008CB

TAF(Forecast)

2022/05/21 06:27 TAF EDDH 210500Z 2106/2212 25010KT 9999 BKN012 PROB40 TEMPO 2106/2110 4000 SHRA BKN008CB BECMG 2107/2110 28015G25KT BKN015 TEMPO 2110/2117 29020G35KT BECMG 2117/2119 29010KT BECMG 2119/2122 28005KT PROB30 TEMPO 2119/2206 BKN014 PROB30 TEMPO 2202/2205 4000 BR BKN008